Home > Products > Valid Products > TAF

000
FTUS43 KDDC 270106 AAA
TAFGCK
TAF AMD
KGCK 270106Z 2701/2724 05015G23KT 2SM BR OVC003
     FM270800 05016G23KT P6SM OVC015
     FM271300 05019G27KT P6SM BKN060=



000
FTUS43 KDDC 270106 AAA
TAFGCK
TAF AMD
KGCK 270106Z 2701/2724 05015G23KT 2SM BR OVC003
     FM270800 05016G23KT P6SM OVC015
     FM271300 05019G27KT P6SM BKN060=



000
FTUS43 KDDC 270106 AAA
TAFGCK
TAF AMD
KGCK 270106Z 2701/2724 05015G23KT 2SM BR OVC003
     FM270800 05016G23KT P6SM OVC015
     FM271300 05019G27KT P6SM BKN060=



000
FTUS43 KDDC 262322
TAFGCK
TAF
KGCK 262322Z 2700/2724 05015G23KT 4SM BR OVC005
     FM270800 05016G23KT P6SM OVC015
     FM271300 05019G27KT P6SM BKN060=



000
FTUS43 KDDC 262322
TAFGCK
TAF
KGCK 262322Z 2700/2724 05015G23KT 4SM BR OVC005
     FM270800 05016G23KT P6SM OVC015
     FM271300 05019G27KT P6SM BKN060=



000
FTUS43 KDDC 262322
TAFDDC
TAF
KDDC 262322Z 2700/2724 05015G23KT 3SM BR OVC003
     FM270700 06020G27KT P6SM VCSH OVC015
     FM271700 06022G28KT P6SM SCT080=



000
FTUS43 KDDC 262322
TAFDDC
TAF
KDDC 262322Z 2700/2724 05015G23KT 3SM BR OVC003
     FM270700 06020G27KT P6SM VCSH OVC015
     FM271700 06022G28KT P6SM SCT080=



000
FTUS43 KDDC 262322
TAFHYS
TAF
KHYS 262322Z 2700/2724 06015KT P6SM OVC020
     FM270200 05010KT 5SM BR OVC012
     FM270800 06014G20KT P6SM SCT120=



000
FTUS43 KDDC 262322
TAFHYS
TAF
KHYS 262322Z 2700/2724 06015KT P6SM OVC020
     FM270200 05010KT 5SM BR OVC012
     FM270800 06014G20KT P6SM SCT120=



000
FTUS43 KDDC 262322
TAFGCK
TAF
KGCK 262322Z 2700/2724 05015G23KT 4SM BR OVC005
     FM270800 05016G23KT P6SM OVC015
     FM271300 05019G27KT P6SM BKN060=



000
FTUS43 KDDC 262322
TAFGCK
TAF
KGCK 262322Z 2700/2724 05015G23KT 4SM BR OVC005
     FM270800 05016G23KT P6SM OVC015
     FM271300 05019G27KT P6SM BKN060=



000
FTUS43 KDDC 262322
TAFHYS
TAF
KHYS 262322Z 2700/2724 06015KT P6SM OVC020
     FM270200 05010KT 5SM BR OVC012
     FM270800 06014G20KT P6SM SCT120=



000
FTUS43 KDDC 262322
TAFDDC
TAF
KDDC 262322Z 2700/2724 05015G23KT 3SM BR OVC003
     FM270700 06020G27KT P6SM VCSH OVC015
     FM271700 06022G28KT P6SM SCT080=



000
FTUS43 KDDC 262322
TAFDDC
TAF
KDDC 262322Z 2700/2724 05015G23KT 3SM BR OVC003
     FM270700 06020G27KT P6SM VCSH OVC015
     FM271700 06022G28KT P6SM SCT080=



000
FTUS43 KDDC 262322
TAFHYS
TAF
KHYS 262322Z 2700/2724 06015KT P6SM OVC020
     FM270200 05010KT 5SM BR OVC012
     FM270800 06014G20KT P6SM SCT120=



000
FTUS43 KDDC 262059 AAB
TAFDDC
TAF AMD
KDDC 262059Z 2621/2718 06015G23KT P6SM OVC006
     FM270700 06020G27KT P6SM VCSH OVC015
     FM271700 06022G28KT P6SM SCT080=



000
FTUS43 KDDC 262058 AAA
TAFGCK
TAF AMD
KGCK 262058Z 2621/2718 06015G21KT 3SM BR OVC003
     FM262300 06014G21KT 5SM BR OVC005
     FM270800 05016G23KT P6SM OVC015
     FM271300 05019G27KT P6SM BKN060=



000
FTUS43 KDDC 262058 AAA
TAFGCK
TAF AMD
KGCK 262058Z 2621/2718 06015G21KT 3SM BR OVC003
     FM262300 06014G21KT 5SM BR OVC005
     FM270800 05016G23KT P6SM OVC015
     FM271300 05019G27KT P6SM BKN060=



000
FTUS43 KDDC 262028 AAB
TAFDDC
TAF AMD
KDDC 262028Z 2620/2718 06015G23KT P6SM OVC006
     FM270900 06020G27KT 5SM -SHRA BR OVC015
     FM271700 06022G28KT P6SM SCT080=



000
FTUS43 KDDC 262028 AAB
TAFDDC
TAF AMD
KDDC 262028Z 2620/2718 06015G23KT P6SM OVC006
     FM270900 06020G27KT 5SM -SHRA BR OVC015
     FM271700 06022G28KT P6SM SCT080=



000
FTUS43 KDDC 261821 AAA
TAFHYS
TAF AMD
KHYS 261821Z 2618/2718 06013KT 3SM BR OVC005
     FM262100 06014G20KT 5SM BR OVC012
     FM270900 06014G20KT P6SM SCT120=



000
FTUS43 KDDC 261821 AAA
TAFHYS
TAF AMD
KHYS 261821Z 2618/2718 06013KT 3SM BR OVC005
     FM262100 06014G20KT 5SM BR OVC012
     FM270900 06014G20KT P6SM SCT120=



000
FTUS43 KDDC 261740
TAFGCK
TAF
KGCK 261740Z 2618/2718 06015G21KT 5SM BR OVC004
     FM262200 06014G21KT 5SM BR OVC008
     FM270800 05016G23KT 5SM -SHRA BR OVC015
     FM271300 05017G25KT P6SM BKN060=



000
FTUS43 KDDC 261740
TAFHYS
TAF
KHYS 261740Z 2618/2718 06013KT P6SM OVC010
     FM262100 06014G20KT P6SM OVC020
     FM270900 06014G20KT P6SM SCT120=



000
FTUS43 KDDC 261740
TAFDDC
TAF
KDDC 261740Z 2618/2718 06015KT 1SM BR VV002
     FM262000 07014G21KT 3SM BR OVC004
     FM262200 06014G21KT 5SM BR OVC008
     FM270900 06020G27KT 5SM -SHRA BR OVC015=



000
FTUS43 KDDC 261740
TAFDDC
TAF
KDDC 261740Z 2618/2718 06015KT 1SM BR VV002
     FM262000 07014G21KT 3SM BR OVC004
     FM262200 06014G21KT 5SM BR OVC008
     FM270900 06020G27KT 5SM -SHRA BR OVC015=



000
FTUS43 KDDC 261740
TAFDDC
TAF
KDDC 261740Z 2618/2718 06015KT 1SM BR VV002
     FM262000 07014G21KT 3SM BR OVC004
     FM262200 06014G21KT 5SM BR OVC008
     FM270900 06020G27KT 5SM -SHRA BR OVC015=



000
FTUS43 KDDC 261740
TAFGCK
TAF
KGCK 261740Z 2618/2718 06015G21KT 5SM BR OVC004
     FM262200 06014G21KT 5SM BR OVC008
     FM270800 05016G23KT 5SM -SHRA BR OVC015
     FM271300 05017G25KT P6SM BKN060=



000
FTUS43 KDDC 261740
TAFGCK
TAF
KGCK 261740Z 2618/2718 06015G21KT 5SM BR OVC004
     FM262200 06014G21KT 5SM BR OVC008
     FM270800 05016G23KT 5SM -SHRA BR OVC015
     FM271300 05017G25KT P6SM BKN060=



000
FTUS43 KDDC 261740
TAFHYS
TAF
KHYS 261740Z 2618/2718 06013KT P6SM OVC010
     FM262100 06014G20KT P6SM OVC020
     FM270900 06014G20KT P6SM SCT120=



000
FTUS43 KDDC 261740
TAFHYS
TAF
KHYS 261740Z 2618/2718 06013KT P6SM OVC010
     FM262100 06014G20KT P6SM OVC020
     FM270900 06014G20KT P6SM SCT120=



000
FTUS43 KDDC 261740
TAFDDC
TAF
KDDC 261740Z 2618/2718 06015KT 1SM BR VV002
     FM262000 07014G21KT 3SM BR OVC004
     FM262200 06014G21KT 5SM BR OVC008
     FM270900 06020G27KT 5SM -SHRA BR OVC015=



000
FTUS43 KDDC 261740
TAFGCK
TAF
KGCK 261740Z 2618/2718 06015G21KT 5SM BR OVC004
     FM262200 06014G21KT 5SM BR OVC008
     FM270800 05016G23KT 5SM -SHRA BR OVC015
     FM271300 05017G25KT P6SM BKN060=



000
FTUS43 KDDC 261740
TAFHYS
TAF
KHYS 261740Z 2618/2718 06013KT P6SM OVC010
     FM262100 06014G20KT P6SM OVC020
     FM270900 06014G20KT P6SM SCT120=



000
FTUS43 KDDC 261531 AAA
TAFHYS
TAF AMD
KHYS 261531Z 2616/2712 06013KT P6SM OVC008
     FM261900 06014KT P6SM OVC015
     FM270000 06020KT P6SM OVC007=



000
FTUS43 KDDC 261531 AAA
TAFHYS
TAF AMD
KHYS 261531Z 2616/2712 06013KT P6SM OVC008
     FM261900 06014KT P6SM OVC015
     FM270000 06020KT P6SM OVC007=



000
FTUS43 KDDC 261130
TAFHYS
TAF
KHYS 261130Z 2612/2712 06013KT 3SM BR OVC004
      TEMPO 2612/2614 1SM BR OVC001
     FM261900 06014KT P6SM OVC015
     FM270000 06020KT P6SM OVC007=



000
FTUS43 KDDC 261130
TAFDDC
TAF
KDDC 261130Z 2612/2712 06015KT 1/2SM -DZ FG VV002
     FM261500 07014KT 3SM BR OVC004
     FM261900 06014KT P6SM OVC015
     FM270300 06020KT 4SM -SHRA BR OVC007=



000
FTUS43 KDDC 261130
TAFGCK
TAF
KGCK 261130Z 2612/2712 07015KT 1/2SM -DZ FG VV002
     FM261400 07015KT 3SM -DZ BR OVC004
     FM261900 06014KT P6SM OVC010
     FM270300 06020KT 4SM -SHRA BR OVC004=



000
FTUS43 KDDC 261130
TAFDDC
TAF
KDDC 261130Z 2612/2712 06015KT 1/2SM -DZ FG VV002
     FM261500 07014KT 3SM BR OVC004
     FM261900 06014KT P6SM OVC015
     FM270300 06020KT 4SM -SHRA BR OVC007=



000
FTUS43 KDDC 261130
TAFGCK
TAF
KGCK 261130Z 2612/2712 07015KT 1/2SM -DZ FG VV002
     FM261400 07015KT 3SM -DZ BR OVC004
     FM261900 06014KT P6SM OVC010
     FM270300 06020KT 4SM -SHRA BR OVC004=



000
FTUS43 KDDC 261130
TAFHYS
TAF
KHYS 261130Z 2612/2712 06013KT 3SM BR OVC004
      TEMPO 2612/2614 1SM BR OVC001
     FM261900 06014KT P6SM OVC015
     FM270000 06020KT P6SM OVC007=



000
FTUS43 KDDC 261130
TAFGCK
TAF
KGCK 261130Z 2612/2712 07015KT 1/2SM -DZ FG VV002
     FM261400 07015KT 3SM -DZ BR OVC004
     FM261900 06014KT P6SM OVC010
     FM270300 06020KT 4SM -SHRA BR OVC004=



000
FTUS43 KDDC 261130
TAFDDC
TAF
KDDC 261130Z 2612/2712 06015KT 1/2SM -DZ FG VV002
     FM261500 07014KT 3SM BR OVC004
     FM261900 06014KT P6SM OVC015
     FM270300 06020KT 4SM -SHRA BR OVC007=



000
FTUS43 KDDC 261130
TAFGCK
TAF
KGCK 261130Z 2612/2712 07015KT 1/2SM -DZ FG VV002
     FM261400 07015KT 3SM -DZ BR OVC004
     FM261900 06014KT P6SM OVC010
     FM270300 06020KT 4SM -SHRA BR OVC004=



000
FTUS43 KDDC 261130
TAFDDC
TAF
KDDC 261130Z 2612/2712 06015KT 1/2SM -DZ FG VV002
     FM261500 07014KT 3SM BR OVC004
     FM261900 06014KT P6SM OVC015
     FM270300 06020KT 4SM -SHRA BR OVC007=



000
FTUS43 KDDC 261130
TAFHYS
TAF
KHYS 261130Z 2612/2712 06013KT 3SM BR OVC004
      TEMPO 2612/2614 1SM BR OVC001
     FM261900 06014KT P6SM OVC015
     FM270000 06020KT P6SM OVC007=



000
FTUS43 KDDC 261130
TAFHYS
TAF
KHYS 261130Z 2612/2712 06013KT 3SM BR OVC004
      TEMPO 2612/2614 1SM BR OVC001
     FM261900 06014KT P6SM OVC015
     FM270000 06020KT P6SM OVC007=



000
FTUS43 KDDC 261031 AAC
TAFDDC
TAF AMD
KDDC 261031Z 2611/2706 06015KT 1/2SM -DZ FG VV002
     FM261500 07014KT 3SM BR OVC004
     FM261900 06014KT P6SM OVC015
     FM270000 06020KT 4SM -SHRA BR OVC007=



000
FTUS43 KDDC 261031 AAC
TAFDDC
TAF AMD
KDDC 261031Z 2611/2706 06015KT 1/2SM -DZ FG VV002
     FM261500 07014KT 3SM BR OVC004
     FM261900 06014KT P6SM OVC015
     FM270000 06020KT 4SM -SHRA BR OVC007=



000
FTUS43 KDDC 261031 AAB
TAFGCK
TAF AMD
KGCK 261031Z 2611/2706 07015KT 1/2SM -DZ FG VV002
     FM261400 07015KT 3SM -DZ BR OVC004
     FM261900 06014KT P6SM OVC010
     FM270000 06020KT 4SM -SHRA BR OVC004=



000
FTUS43 KDDC 261031 AAB
TAFGCK
TAF AMD
KGCK 261031Z 2611/2706 07015KT 1/2SM -DZ FG VV002
     FM261400 07015KT 3SM -DZ BR OVC004
     FM261900 06014KT P6SM OVC010
     FM270000 06020KT 4SM -SHRA BR OVC004=



000
FTUS43 KDDC 260936 AAC
TAFDDC
TAF AMD
KDDC 260936Z 2610/2706 07014KT 1SM BR OVC002
      TEMPO 2610/2614 1/2SM FG VV001
     FM261500 07014KT 3SM BR OVC004
     FM261900 06014KT P6SM OVC015
     FM270000 06020KT 4SM -SHRA BR OVC007=



000
FTUS43 KDDC 260936 AAC
TAFDDC
TAF AMD
KDDC 260936Z 2610/2706 07014KT 1SM BR OVC002
      TEMPO 2610/2614 1/2SM FG VV001
     FM261500 07014KT 3SM BR OVC004
     FM261900 06014KT P6SM OVC015
     FM270000 06020KT 4SM -SHRA BR OVC007=



000
FTUS43 KDDC 260830 AAB
TAFDDC
TAF AMD
KDDC 260830Z 2609/2706 07014KT 2SM BR OVC002
      TEMPO 2610/2614 3/4SM BR OVC001
     FM261900 06014KT P6SM OVC015
     FM270000 06020KT 4SM -SHRA BR OVC007=



000
FTUS43 KDDC 260830 AAB
TAFDDC
TAF AMD
KDDC 260830Z 2609/2706 07014KT 2SM BR OVC002
      TEMPO 2610/2614 3/4SM BR OVC001
     FM261900 06014KT P6SM OVC015
     FM270000 06020KT 4SM -SHRA BR OVC007=



000
FTUS43 KDDC 260827 AAA
TAFGCK
TAF AMD
KGCK 260827Z 2608/2706 08017G24KT 2SM BR OVC002
      TEMPO 2610/2614 3/4SM -DZ BR OVC001
     FM261900 06014KT P6SM OVC010
     FM270000 06020KT 4SM -SHRA BR OVC004=



000
FTUS43 KDDC 260827 AAA
TAFGCK
TAF AMD
KGCK 260827Z 2608/2706 08017G24KT 2SM BR OVC002
      TEMPO 2610/2614 3/4SM -DZ BR OVC001
     FM261900 06014KT P6SM OVC010
     FM270000 06020KT 4SM -SHRA BR OVC004=



000
FTUS43 KDDC 260520
TAFGCK
TAF
KGCK 260520Z 2606/2706 08008KT P6SM BKN007
     FM260630 06013KT 3SM BR OVC004
      TEMPO 2612/2614 1SM -DZ BR OVC001
     FM261900 06014KT P6SM OVC010
     FM270000 06020KT 4SM -SHRA BR OVC004=



000
FTUS43 KDDC 260520
TAFDDC
TAF
KDDC 260520Z 2606/2706 06013KT 3SM BR OVC004
      TEMPO 2612/2614 1SM BR OVC001
     FM261900 06014KT P6SM OVC015
     FM270000 06020KT 4SM -SHRA BR OVC007=



000
FTUS43 KDDC 260520
TAFHYS
TAF
KHYS 260520Z 2606/2706 06013KT 3SM BR OVC004
      TEMPO 2612/2614 1SM BR OVC001
     FM261900 06014KT P6SM OVC015
     FM270000 06020KT P6SM OVC007=



000
FTUS43 KDDC 260520
TAFHYS
TAF
KHYS 260520Z 2606/2706 06013KT 3SM BR OVC004
      TEMPO 2612/2614 1SM BR OVC001
     FM261900 06014KT P6SM OVC015
     FM270000 06020KT P6SM OVC007=



000
FTUS43 KDDC 260520
TAFGCK
TAF
KGCK 260520Z 2606/2706 08008KT P6SM BKN007
     FM260630 06013KT 3SM BR OVC004
      TEMPO 2612/2614 1SM -DZ BR OVC001
     FM261900 06014KT P6SM OVC010
     FM270000 06020KT 4SM -SHRA BR OVC004=



000
FTUS43 KDDC 260520
TAFGCK
TAF
KGCK 260520Z 2606/2706 08008KT P6SM BKN007
     FM260630 06013KT 3SM BR OVC004
      TEMPO 2612/2614 1SM -DZ BR OVC001
     FM261900 06014KT P6SM OVC010
     FM270000 06020KT 4SM -SHRA BR OVC004=



000
FTUS43 KDDC 260520
TAFGCK
TAF
KGCK 260520Z 2606/2706 08008KT P6SM BKN007
     FM260630 06013KT 3SM BR OVC004
      TEMPO 2612/2614 1SM -DZ BR OVC001
     FM261900 06014KT P6SM OVC010
     FM270000 06020KT 4SM -SHRA BR OVC004=



000
FTUS43 KDDC 260520
TAFDDC
TAF
KDDC 260520Z 2606/2706 06013KT 3SM BR OVC004
      TEMPO 2612/2614 1SM BR OVC001
     FM261900 06014KT P6SM OVC015
     FM270000 06020KT 4SM -SHRA BR OVC007=



000
FTUS43 KDDC 260520
TAFDDC
TAF
KDDC 260520Z 2606/2706 06013KT 3SM BR OVC004
      TEMPO 2612/2614 1SM BR OVC001
     FM261900 06014KT P6SM OVC015
     FM270000 06020KT 4SM -SHRA BR OVC007=



000
FTUS43 KDDC 260520
TAFHYS
TAF
KHYS 260520Z 2606/2706 06013KT 3SM BR OVC004
      TEMPO 2612/2614 1SM BR OVC001
     FM261900 06014KT P6SM OVC015
     FM270000 06020KT P6SM OVC007=



000
FTUS43 KDDC 260520
TAFHYS
TAF
KHYS 260520Z 2606/2706 06013KT 3SM BR OVC004
      TEMPO 2612/2614 1SM BR OVC001
     FM261900 06014KT P6SM OVC015
     FM270000 06020KT P6SM OVC007=



000
FTUS43 KDDC 260520
TAFDDC
TAF
KDDC 260520Z 2606/2706 06013KT 3SM BR OVC004
      TEMPO 2612/2614 1SM BR OVC001
     FM261900 06014KT P6SM OVC015
     FM270000 06020KT 4SM -SHRA BR OVC007=



000
FTUS43 KDDC 260418 AAB
TAFHYS
TAF AMD
KHYS 260418Z 2604/2624 06014KT P6SM OVC005
     FM260600 08011KT 4SM BR OVC007=



000
FTUS43 KDDC 260418 AAB
TAFHYS
TAF AMD
KHYS 260418Z 2604/2624 06014KT P6SM OVC005
     FM260600 08011KT 4SM BR OVC007=



000
FTUS43 KDDC 260347 AAA
TAFHYS
TAF AMD
KHYS 260347Z 2604/2624 07012G18KT P6SM OVC010
     FM260600 08011KT 4SM BR OVC007=



000
FTUS43 KDDC 260347 AAA
TAFHYS
TAF AMD
KHYS 260347Z 2604/2624 07012G18KT P6SM OVC010
     FM260600 08011KT 4SM BR OVC007=



000
FTUS43 KDDC 252329
TAFGCK
TAF
KGCK 252329Z 2600/2624 08008KT P6SM FEW080
     FM260400 08012KT P6SM SKC
     FM260700 07012G18KT 4SM BR OVC007=



000
FTUS43 KDDC 252329
TAFDDC
TAF
KDDC 252329Z 2600/2624 08010KT P6SM SCT080
     FM260400 09012KT P6SM SKC
     FM260600 08012G18KT 4SM BR OVC007=



000
FTUS43 KDDC 252329
TAFHYS
TAF
KHYS 252329Z 2600/2624 07012KT P6SM FEW080
     FM260600 08011KT 4SM BR OVC007=



000
FTUS43 KDDC 252329
TAFHYS
TAF
KHYS 252329Z 2600/2624 07012KT P6SM FEW080
     FM260600 08011KT 4SM BR OVC007=



000
FTUS43 KDDC 252329
TAFGCK
TAF
KGCK 252329Z 2600/2624 08008KT P6SM FEW080
     FM260400 08012KT P6SM SKC
     FM260700 07012G18KT 4SM BR OVC007=



000
FTUS43 KDDC 252329
TAFDDC
TAF
KDDC 252329Z 2600/2624 08010KT P6SM SCT080
     FM260400 09012KT P6SM SKC
     FM260600 08012G18KT 4SM BR OVC007=



000
FTUS43 KDDC 252329
TAFDDC
TAF
KDDC 252329Z 2600/2624 08010KT P6SM SCT080
     FM260400 09012KT P6SM SKC
     FM260600 08012G18KT 4SM BR OVC007=



000
FTUS43 KDDC 252329
TAFHYS
TAF
KHYS 252329Z 2600/2624 07012KT P6SM FEW080
     FM260600 08011KT 4SM BR OVC007=



000
FTUS43 KDDC 252329
TAFHYS
TAF
KHYS 252329Z 2600/2624 07012KT P6SM FEW080
     FM260600 08011KT 4SM BR OVC007=



000
FTUS43 KDDC 252329
TAFGCK
TAF
KGCK 252329Z 2600/2624 08008KT P6SM FEW080
     FM260400 08012KT P6SM SKC
     FM260700 07012G18KT 4SM BR OVC007=



000
FTUS43 KDDC 252329
TAFDDC
TAF
KDDC 252329Z 2600/2624 08010KT P6SM SCT080
     FM260400 09012KT P6SM SKC
     FM260600 08012G18KT 4SM BR OVC007=



000
FTUS43 KDDC 251734
TAFGCK
TAF
KGCK 251734Z 2518/2618 34010KT P6SM SKC
     FM260000 06010KT P6SM SCT250
     FM260300 09013G20KT P6SM SCT250
     FM260600 07012G18KT 4SM BR OVC007=



000
FTUS43 KDDC 251734
TAFHYS
TAF
KHYS 251734Z 2518/2618 33011G17KT P6SM SKC
     FM260000 07012KT P6SM SCT250
     FM260600 07013G17KT 4SM BR OVC007=



000
FTUS43 KDDC 251734
TAFDDC
TAF
KDDC 251734Z 2518/2618 33011G17KT P6SM SKC
     FM260000 08008KT P6SM SCT250
     FM260300 08013G20KT P6SM SCT250
     FM260600 07012G18KT 4SM BR OVC007=



000
FTUS43 KDDC 251734
TAFHYS
TAF
KHYS 251734Z 2518/2618 33011G17KT P6SM SKC
     FM260000 07012KT P6SM SCT250
     FM260600 07013G17KT 4SM BR OVC007=



000
FTUS43 KDDC 251734
TAFGCK
TAF
KGCK 251734Z 2518/2618 34010KT P6SM SKC
     FM260000 06010KT P6SM SCT250
     FM260300 09013G20KT P6SM SCT250
     FM260600 07012G18KT 4SM BR OVC007=



000
FTUS43 KDDC 251734
TAFDDC
TAF
KDDC 251734Z 2518/2618 33011G17KT P6SM SKC
     FM260000 08008KT P6SM SCT250
     FM260300 08013G20KT P6SM SCT250
     FM260600 07012G18KT 4SM BR OVC007=



000
FTUS43 KDDC 251123
TAFGCK
TAF
KGCK 251123Z 2512/2612 30008KT P6SM SKC
     FM251500 34009KT P6SM SKC
     FM260000 08013KT P6SM BKN250
     FM260600 07010KT 4SM BR OVC007
     FM261000 07010KT 2SM BR OVC004=



000
FTUS43 KDDC 251123
TAFHYS
TAF
KHYS 251123Z 2512/2612 33010KT P6SM SCT100
     FM260400 06010KT P6SM OVC100
     FM260900 07011KT 6SM BR OVC007=



000
FTUS43 KDDC 251123
TAFGCK
TAF
KGCK 251123Z 2512/2612 30008KT P6SM SKC
     FM251500 34009KT P6SM SKC
     FM260000 08013KT P6SM BKN250
     FM260600 07010KT 4SM BR OVC007
     FM261000 07010KT 2SM BR OVC004=



000
FTUS43 KDDC 251123
TAFDDC
TAF
KDDC 251123Z 2512/2612 32011KT P6SM SCT150
     FM251500 33011G17KT P6SM SCT150
     FM260000 06010KT P6SM OVC250
     FM260600 07010KT 4SM BR OVC007
     FM261000 07010KT 2SM BR OVC004=



000
FTUS43 KDDC 251123
TAFHYS
TAF
KHYS 251123Z 2512/2612 33010KT P6SM SCT100
     FM260400 06010KT P6SM OVC100
     FM260900 07011KT 6SM BR OVC007=



000
FTUS43 KDDC 251123
TAFDDC
TAF
KDDC 251123Z 2512/2612 32011KT P6SM SCT150
     FM251500 33011G17KT P6SM SCT150
     FM260000 06010KT P6SM OVC250
     FM260600 07010KT 4SM BR OVC007
     FM261000 07010KT 2SM BR OVC004=



000
FTUS43 KDDC 251123
TAFGCK
TAF
KGCK 251123Z 2512/2612 30008KT P6SM SKC
     FM251500 34009KT P6SM SKC
     FM260000 08013KT P6SM BKN250
     FM260600 07010KT 4SM BR OVC007
     FM261000 07010KT 2SM BR OVC004=



000
FTUS43 KDDC 251123
TAFDDC
TAF
KDDC 251123Z 2512/2612 32011KT P6SM SCT150
     FM251500 33011G17KT P6SM SCT150
     FM260000 06010KT P6SM OVC250
     FM260600 07010KT 4SM BR OVC007
     FM261000 07010KT 2SM BR OVC004=



000
FTUS43 KDDC 251123
TAFGCK
TAF
KGCK 251123Z 2512/2612 30008KT P6SM SKC
     FM251500 34009KT P6SM SKC
     FM260000 08013KT P6SM BKN250
     FM260600 07010KT 4SM BR OVC007
     FM261000 07010KT 2SM BR OVC004=



000
FTUS43 KDDC 251123
TAFDDC
TAF
KDDC 251123Z 2512/2612 32011KT P6SM SCT150
     FM251500 33011G17KT P6SM SCT150
     FM260000 06010KT P6SM OVC250
     FM260600 07010KT 4SM BR OVC007
     FM261000 07010KT 2SM BR OVC004=



000
FTUS43 KDDC 251123
TAFHYS
TAF
KHYS 251123Z 2512/2612 33010KT P6SM SCT100
     FM260400 06010KT P6SM OVC100
     FM260900 07011KT 6SM BR OVC007=



000
FTUS43 KDDC 251123
TAFHYS
TAF
KHYS 251123Z 2512/2612 33010KT P6SM SCT100
     FM260400 06010KT P6SM OVC100
     FM260900 07011KT 6SM BR OVC007=



000
FTUS43 KDDC 250734 AAA
TAFHYS
TAF AMD
KHYS 250734Z 2508/2606 15005KT P6SM -SHRA FEW011 BKN070
     FM251000 33010KT P6SM SCT100
     FM260400 06010KT P6SM OVC100=



000
FTUS43 KDDC 250734 AAA
TAFHYS
TAF AMD
KHYS 250734Z 2508/2606 15005KT P6SM -SHRA FEW011 BKN070
     FM251000 33010KT P6SM SCT100
     FM260400 06010KT P6SM OVC100=



000
FTUS43 KDDC 250520
TAFDDC
TAF
KDDC 250520Z 2506/2606 32011KT P6SM SCT090
     FM251500 33011G17KT P6SM SCT150
     FM260000 06010KT P6SM OVC250=



000
FTUS43 KDDC 250520
TAFGCK
TAF
KGCK 250520Z 2506/2606 30008KT P6SM SCT120
     FM251500 34009KT P6SM SCT150
     FM260000 08013KT P6SM BKN250=



000
FTUS43 KDDC 250520
TAFHYS
TAF
KHYS 250520Z 2506/2606 15005KT P6SM FEW011 SCT070 OVC100
     FM250900 33010KT P6SM SCT100
     FM260400 06010KT P6SM OVC100=



000
FTUS43 KDDC 250053 AAA
TAFHYS
TAF AMD
KHYS 250053Z 2501/2524 VRB06KT P6SM VCTS BKN080CB
      TEMPO 2501/2503 VRB25G35KT -TSRA BKN040CB
     FM250300 VRB06KT P6SM VCSH BKN080
     FM250500 29010KT P6SM SCT100
     FM251500 34010KT P6SM SCT150=



000
FTUS43 KDDC 250053 AAA
TAFHYS
TAF AMD
KHYS 250053Z 2501/2524 VRB06KT P6SM VCTS BKN080CB
      TEMPO 2501/2503 VRB25G35KT -TSRA BKN040CB
     FM250300 VRB06KT P6SM VCSH BKN080
     FM250500 29010KT P6SM SCT100
     FM251500 34010KT P6SM SCT150=



000
FTUS43 KDDC 250051 AAA
TAFGCK
TAF AMD
KGCK 250051Z 2501/2524 31015KT P6SM VCSH BKN050
      TEMPO 2501/2503 -RA
     FM250500 29010KT P6SM SCT100
     FM251500 34010KT P6SM SCT150=



000
FTUS43 KDDC 250051 AAA
TAFGCK
TAF AMD
KGCK 250051Z 2501/2524 31015KT P6SM VCSH BKN050
      TEMPO 2501/2503 -RA
     FM250500 29010KT P6SM SCT100
     FM251500 34010KT P6SM SCT150=



000
FTUS43 KDDC 250049 AAA
TAFDDC
TAF AMD
KDDC 250049Z 2501/2524 28015G25KT P6SM BKN050
      TEMPO 2501/2503 -RA
     FM250300 VRB06KT P6SM VCSH BKN150
     FM250500 29010KT P6SM SCT100
     FM251500 34010KT P6SM SCT150=



000
FTUS43 KDDC 250049 AAA
TAFDDC
TAF AMD
KDDC 250049Z 2501/2524 28015G25KT P6SM BKN050
      TEMPO 2501/2503 -RA
     FM250300 VRB06KT P6SM VCSH BKN150
     FM250500 29010KT P6SM SCT100
     FM251500 34010KT P6SM SCT150=



000
FTUS43 KDDC 250049 AAA
TAFDDC
TAF AMD
KDDC 250049Z 2501/2524 28015G25KT P6SM BKN050
      TEMPO 2501/2503 -RA
     FM250300 VRB06KT P6SM VCSH BKN150
     FM250500 29010KT P6SM SCT100
     FM251500 34010KT P6SM SCT150=



000
FTUS43 KDDC 250049 AAA
TAFDDC
TAF AMD
KDDC 250049Z 2501/2524 28015G25KT P6SM BKN050
      TEMPO 2501/2503 -RA
     FM250300 VRB06KT P6SM VCSH BKN150
     FM250500 29010KT P6SM SCT100
     FM251500 34010KT P6SM SCT150=



000
FTUS43 KDDC 242329
TAFDDC
TAF
KDDC 242329Z 2500/2524 VRB15G25KT P6SM -TSRA BKN050CB
      TEMPO 2500/2503 3SM TSRA
     FM250300 VRB06KT P6SM VCSH BKN150
     FM250500 29010KT P6SM SCT100
     FM251500 34010KT P6SM SCT150=



000
FTUS43 KDDC 242329
TAFGCK
TAF
KGCK 242329Z 2500/2524 28015G25KT P6SM VCSH BKN050
      TEMPO 2500/2502 -TSRA BKN050CB
     FM250200 VRB06KT P6SM VCSH BKN150
     FM250500 29010KT P6SM SCT100
     FM251500 34010KT P6SM SCT150=



000
FTUS43 KDDC 242329
TAFHYS
TAF
KHYS 242329Z 2500/2524 VRB15G25KT P6SM VCTS BKN040CB
      TEMPO 2500/2503 3SM TSRA
     FM250300 VRB06KT P6SM VCSH BKN080
     FM250500 29010KT P6SM SCT100
     FM251500 34010KT P6SM SCT150=



000
FTUS43 KDDC 242329
TAFGCK
TAF
KGCK 242329Z 2500/2524 28015G25KT P6SM VCSH BKN050
      TEMPO 2500/2502 -TSRA BKN050CB
     FM250200 VRB06KT P6SM VCSH BKN150
     FM250500 29010KT P6SM SCT100
     FM251500 34010KT P6SM SCT150=



000
FTUS43 KDDC 242329
TAFHYS
TAF
KHYS 242329Z 2500/2524 VRB15G25KT P6SM VCTS BKN040CB
      TEMPO 2500/2503 3SM TSRA
     FM250300 VRB06KT P6SM VCSH BKN080
     FM250500 29010KT P6SM SCT100
     FM251500 34010KT P6SM SCT150=



000
FTUS43 KDDC 242329
TAFDDC
TAF
KDDC 242329Z 2500/2524 VRB15G25KT P6SM -TSRA BKN050CB
      TEMPO 2500/2503 3SM TSRA
     FM250300 VRB06KT P6SM VCSH BKN150
     FM250500 29010KT P6SM SCT100
     FM251500 34010KT P6SM SCT150=



000
FTUS43 KDDC 242329
TAFGCK
TAF
KGCK 242329Z 2500/2524 28015G25KT P6SM VCSH BKN050
      TEMPO 2500/2502 -TSRA BKN050CB
     FM250200 VRB06KT P6SM VCSH BKN150
     FM250500 29010KT P6SM SCT100
     FM251500 34010KT P6SM SCT150=



000
FTUS43 KDDC 242329
TAFDDC
TAF
KDDC 242329Z 2500/2524 VRB15G25KT P6SM -TSRA BKN050CB
      TEMPO 2500/2503 3SM TSRA
     FM250300 VRB06KT P6SM VCSH BKN150
     FM250500 29010KT P6SM SCT100
     FM251500 34010KT P6SM SCT150=



000
FTUS43 KDDC 242329
TAFHYS
TAF
KHYS 242329Z 2500/2524 VRB15G25KT P6SM VCTS BKN040CB
      TEMPO 2500/2503 3SM TSRA
     FM250300 VRB06KT P6SM VCSH BKN080
     FM250500 29010KT P6SM SCT100
     FM251500 34010KT P6SM SCT150=



000
FTUS43 KDDC 242329
TAFHYS
TAF
KHYS 242329Z 2500/2524 VRB15G25KT P6SM VCTS BKN040CB
      TEMPO 2500/2503 3SM TSRA
     FM250300 VRB06KT P6SM VCSH BKN080
     FM250500 29010KT P6SM SCT100
     FM251500 34010KT P6SM SCT150=



000
FTUS43 KDDC 242329
TAFGCK
TAF
KGCK 242329Z 2500/2524 28015G25KT P6SM VCSH BKN050
      TEMPO 2500/2502 -TSRA BKN050CB
     FM250200 VRB06KT P6SM VCSH BKN150
     FM250500 29010KT P6SM SCT100
     FM251500 34010KT P6SM SCT150=



000
FTUS43 KDDC 242329
TAFDDC
TAF
KDDC 242329Z 2500/2524 VRB15G25KT P6SM -TSRA BKN050CB
      TEMPO 2500/2503 3SM TSRA
     FM250300 VRB06KT P6SM VCSH BKN150
     FM250500 29010KT P6SM SCT100
     FM251500 34010KT P6SM SCT150=



000
FTUS43 KDDC 242134 AAC
TAFDDC
TAF AMD
KDDC 242134Z 2422/2518 VRB15G25KT P6SM VCTS BKN050CB
      TEMPO 2422/2424 -TSRA
     FM250100 VRB05KT P6SM VCSH BKN150
     FM250500 29010KT P6SM SCT100=



000
FTUS43 KDDC 242134 AAA
TAFGCK
TAF AMD
KGCK 242134Z 2422/2518 VRB15G25KT P6SM VCTS BKN050CB
      TEMPO 2422/2424 -TSRA
     FM250100 VRB05KT P6SM VCSH BKN150
     FM250500 29010KT P6SM SCT100=



000
FTUS43 KDDC 242134 AAC
TAFDDC
TAF AMD
KDDC 242134Z 2422/2518 VRB15G25KT P6SM VCTS BKN050CB
      TEMPO 2422/2424 -TSRA
     FM250100 VRB05KT P6SM VCSH BKN150
     FM250500 29010KT P6SM SCT100=



000
FTUS43 KDDC 242134 AAA
TAFGCK
TAF AMD
KGCK 242134Z 2422/2518 VRB15G25KT P6SM VCTS BKN050CB
      TEMPO 2422/2424 -TSRA
     FM250100 VRB05KT P6SM VCSH BKN150
     FM250500 29010KT P6SM SCT100=



000
FTUS43 KDDC 242134 AAA
TAFGCK
TAF AMD
KGCK 242134Z 2422/2518 VRB15G25KT P6SM VCTS BKN050CB
      TEMPO 2422/2424 -TSRA
     FM250100 VRB05KT P6SM VCSH BKN150
     FM250500 29010KT P6SM SCT100=



000
FTUS43 KDDC 242134 AAC
TAFDDC
TAF AMD
KDDC 242134Z 2422/2518 VRB15G25KT P6SM VCTS BKN050CB
      TEMPO 2422/2424 -TSRA
     FM250100 VRB05KT P6SM VCSH BKN150
     FM250500 29010KT P6SM SCT100=



000
FTUS43 KDDC 242131 AAB
TAFHYS
TAF AMD
KHYS 242131Z 2422/2518 VRB15G25KT P6SM VCTS BKN040CB
      TEMPO 2422/2424 VRB35G45KT 3SM TSRA OVC025CB
     FM250200 VRB06KT P6SM VCSH BKN080
     FM250500 29010KT P6SM SCT100=



000
FTUS43 KDDC 242131 AAB
TAFHYS
TAF AMD
KHYS 242131Z 2422/2518 VRB15G25KT P6SM VCTS BKN040CB
      TEMPO 2422/2424 VRB35G45KT 3SM TSRA OVC025CB
     FM250200 VRB06KT P6SM VCSH BKN080
     FM250500 29010KT P6SM SCT100=



000
FTUS43 KDDC 242004 AAA
TAFHYS
TAF AMD
KHYS 242004Z 2420/2518 14013KT P6SM SCT020
     FM242130 VRB20KT P6SM VCTS BKN025CB
      TEMPO 2422/2423 VRB30G45KT 1SM +TSRAGR OVC015CB
     FM250200 VRB06KT P6SM VCSH BKN080
     FM250500 29010KT P6SM SCT100=



000
FTUS43 KDDC 242004 AAA
TAFHYS
TAF AMD
KHYS 242004Z 2420/2518 14013KT P6SM SCT020
     FM242130 VRB20KT P6SM VCTS BKN025CB
      TEMPO 2422/2423 VRB30G45KT 1SM +TSRAGR OVC015CB
     FM250200 VRB06KT P6SM VCSH BKN080
     FM250500 29010KT P6SM SCT100=



000
FTUS43 KDDC 241720
TAFHYS
TAF
KHYS 241720Z 2418/2518 14013KT P6SM SCT020
     FM242000 VRB20KT P6SM VCTS BKN025CB
      TEMPO 2420/2422 VRB30G45KT 1SM +TSRAGR OVC015CB
     FM250200 VRB06KT P6SM VCSH BKN080
     FM250500 29010KT P6SM SCT100=



000
FTUS43 KDDC 241720
TAFHYS
TAF
KHYS 241720Z 2418/2518 14013KT P6SM SCT020
     FM242000 VRB20KT P6SM VCTS BKN025CB
      TEMPO 2420/2422 VRB30G45KT 1SM +TSRAGR OVC015CB
     FM250200 VRB06KT P6SM VCSH BKN080
     FM250500 29010KT P6SM SCT100=



000
FTUS43 KDDC 241720
TAFHYS
TAF
KHYS 241720Z 2418/2518 14013KT P6SM SCT020
     FM242000 VRB20KT P6SM VCTS BKN025CB
      TEMPO 2420/2422 VRB30G45KT 1SM +TSRAGR OVC015CB
     FM250200 VRB06KT P6SM VCSH BKN080
     FM250500 29010KT P6SM SCT100=



000
FTUS43 KDDC 241720
TAFGCK
TAF
KGCK 241720Z 2418/2518 22009KT P6SM SKC
     FM242100 VRB20KT P6SM VCTS BKN070CB
     FM250100 VRB05KT P6SM VCSH BKN150
     FM250500 29010KT P6SM SCT100=



000
FTUS43 KDDC 241720
TAFGCK
TAF
KGCK 241720Z 2418/2518 22009KT P6SM SKC
     FM242100 VRB20KT P6SM VCTS BKN070CB
     FM250100 VRB05KT P6SM VCSH BKN150
     FM250500 29010KT P6SM SCT100=



000
FTUS43 KDDC 241720
TAFDDC
TAF
KDDC 241720Z 2418/2518 21016G22KT P6SM SKC
     FM242100 VRB20KT P6SM VCTS BKN070CB
     FM250100 VRB05KT P6SM VCSH BKN150
     FM250500 29010KT P6SM SCT100=



000
FTUS43 KDDC 241720
TAFHYS
TAF
KHYS 241720Z 2418/2518 14013KT P6SM SCT020
     FM242000 VRB20KT P6SM VCTS BKN025CB
      TEMPO 2420/2422 VRB30G45KT 1SM +TSRAGR OVC015CB
     FM250200 VRB06KT P6SM VCSH BKN080
     FM250500 29010KT P6SM SCT100=



000
FTUS43 KDDC 241720
TAFDDC
TAF
KDDC 241720Z 2418/2518 21016G22KT P6SM SKC
     FM242100 VRB20KT P6SM VCTS BKN070CB
     FM250100 VRB05KT P6SM VCSH BKN150
     FM250500 29010KT P6SM SCT100=



000
FTUS43 KDDC 241720
TAFGCK
TAF
KGCK 241720Z 2418/2518 22009KT P6SM SKC
     FM242100 VRB20KT P6SM VCTS BKN070CB
     FM250100 VRB05KT P6SM VCSH BKN150
     FM250500 29010KT P6SM SCT100=



000
FTUS43 KDDC 241720
TAFDDC
TAF
KDDC 241720Z 2418/2518 21016G22KT P6SM SKC
     FM242100 VRB20KT P6SM VCTS BKN070CB
     FM250100 VRB05KT P6SM VCSH BKN150
     FM250500 29010KT P6SM SCT100=



000
FTUS43 KDDC 241720
TAFGCK
TAF
KGCK 241720Z 2418/2518 22009KT P6SM SKC
     FM242100 VRB20KT P6SM VCTS BKN070CB
     FM250100 VRB05KT P6SM VCSH BKN150
     FM250500 29010KT P6SM SCT100=



000
FTUS43 KDDC 241720
TAFDDC
TAF
KDDC 241720Z 2418/2518 21016G22KT P6SM SKC
     FM242100 VRB20KT P6SM VCTS BKN070CB
     FM250100 VRB05KT P6SM VCSH BKN150
     FM250500 29010KT P6SM SCT100=



000
FTUS43 KDDC 241429 AAA
TAFGCK
TAF AMD
KGCK 241429Z 2414/2512 18012KT 6SM BR OVC008
     FM241600 22013KT P6SM BKN090
     FM250200 34007KT P6SM BKN250=



000
FTUS43 KDDC 241429 AAA
TAFGCK
TAF AMD
KGCK 241429Z 2414/2512 18012KT 6SM BR OVC008
     FM241600 22013KT P6SM BKN090
     FM250200 34007KT P6SM BKN250=



000
FTUS43 KDDC 241429 AAA
TAFGCK
TAF AMD
KGCK 241429Z 2414/2512 18012KT 6SM BR OVC008
     FM241600 22013KT P6SM BKN090
     FM250200 34007KT P6SM BKN250=



000
FTUS43 KDDC 241429 AAA
TAFGCK
TAF AMD
KGCK 241429Z 2414/2512 18012KT 6SM BR OVC008
     FM241600 22013KT P6SM BKN090
     FM250200 34007KT P6SM BKN250=



000
FTUS43 KDDC 241427 AAA
TAFHYS
TAF AMD
KHYS 241427Z 2414/2512 14010KT 3/4SM BR OVC002
     FM241530 14010KT 5SM BR BKN006
     FM241700 17012KT P6SM SCT020
     FM242100 19015KT P6SM VCTS SCT035CB
     FM250200 34007KT P6SM BKN250=



000
FTUS43 KDDC 241427 AAA
TAFHYS
TAF AMD
KHYS 241427Z 2414/2512 14010KT 3/4SM BR OVC002
     FM241530 14010KT 5SM BR BKN006
     FM241700 17012KT P6SM SCT020
     FM242100 19015KT P6SM VCTS SCT035CB
     FM250200 34007KT P6SM BKN250=



000
FTUS43 KDDC 241427 AAA
TAFHYS
TAF AMD
KHYS 241427Z 2414/2512 14010KT 3/4SM BR OVC002
     FM241530 14010KT 5SM BR BKN006
     FM241700 17012KT P6SM SCT020
     FM242100 19015KT P6SM VCTS SCT035CB
     FM250200 34007KT P6SM BKN250=



000
FTUS43 KDDC 241427 AAA
TAFHYS
TAF AMD
KHYS 241427Z 2414/2512 14010KT 3/4SM BR OVC002
     FM241530 14010KT 5SM BR BKN006
     FM241700 17012KT P6SM SCT020
     FM242100 19015KT P6SM VCTS SCT035CB
     FM250200 34007KT P6SM BKN250=



000
FTUS43 KDDC 241133 CCB
TAFDDC
TAF COR
KDDC 241133Z 2412/2512 13008KT P6SM OVC012
     FM241400 17012KT P6SM SCT035
     FM241900 19015KT P6SM VCTS BKN035CB
     FM242300 23012KT P6SM BKN090
     FM250200 34007KT P6SM BKN250=



000
FTUS43 KDDC 241133 CCB
TAFDDC
TAF COR
KDDC 241133Z 2412/2512 13008KT P6SM OVC012
     FM241400 17012KT P6SM SCT035
     FM241900 19015KT P6SM VCTS BKN035CB
     FM242300 23012KT P6SM BKN090
     FM250200 34007KT P6SM BKN250=



000
FTUS43 KDDC 241133 CCB
TAFDDC
TAF COR
KDDC 241133Z 2412/2512 13008KT P6SM OVC012
     FM241400 17012KT P6SM SCT035
     FM241900 19015KT P6SM VCTS BKN035CB
     FM242300 23012KT P6SM BKN090
     FM250200 34007KT P6SM BKN250=



000
FTUS43 KDDC 241132 CCA
TAFGCK
TAF COR
KGCK 241132Z 2412/2512 13013KT P6SM SCT035 BKN120
     FM241500 22013KT P6SM BKN090
     FM250200 34007KT P6SM BKN250=



000
FTUS43 KDDC 241132 CCA
TAFGCK
TAF COR
KGCK 241132Z 2412/2512 13013KT P6SM SCT035 BKN120
     FM241500 22013KT P6SM BKN090
     FM250200 34007KT P6SM BKN250=



000
FTUS43 KDDC 241132 CCA
TAFGCK
TAF COR
KGCK 241132Z 2412/2512 13013KT P6SM SCT035 BKN120
     FM241500 22013KT P6SM BKN090
     FM250200 34007KT P6SM BKN250=



000
FTUS43 KDDC 241132 CCA
TAFGCK
TAF COR
KGCK 241132Z 2412/2512 13013KT P6SM SCT035 BKN120
     FM241500 22013KT P6SM BKN090
     FM250200 34007KT P6SM BKN250=



000
FTUS43 KDDC 241120
TAFHYS
TAF
KHYS 241120Z 2412/2512 15015G20KT 3SM BR OVC004
     FM241400 16012KT P6SM BKN015
     FM241700 17012KT P6SM SCT035
     FM242100 19015KT P6SM VCTS SCT035CB
     FM250200 34007KT P6SM BKN250=



000
FTUS43 KDDC 241120
TAFGCK
TAF
KGCK 241120Z 2412/2512 12012KT P6SM OVC007
     FM241500 24015KT P6SM SCT035
     FM250200 34007KT P6SM BKN250=



000
FTUS43 KDDC 241120
TAFDDC
TAF
KDDC 241120Z 2412/2512 13008KT 3SM BR OVC008
     FM241400 17012KT P6SM SCT035
     FM241900 19015KT P6SM VCTS BKN035CB
     FM242300 23012KT P6SM BKN090
     FM250200 34007KT P6SM BKN250=



000
FTUS43 KDDC 241120
TAFHYS
TAF
KHYS 241120Z 2412/2512 15015G20KT 3SM BR OVC004
     FM241400 16012KT P6SM BKN015
     FM241700 17012KT P6SM SCT035
     FM242100 19015KT P6SM VCTS SCT035CB
     FM250200 34007KT P6SM BKN250=



000
FTUS43 KDDC 241120
TAFDDC
TAF
KDDC 241120Z 2412/2512 13008KT 3SM BR OVC008
     FM241400 17012KT P6SM SCT035
     FM241900 19015KT P6SM VCTS BKN035CB
     FM242300 23012KT P6SM BKN090
     FM250200 34007KT P6SM BKN250=



000
FTUS43 KDDC 241120
TAFGCK
TAF
KGCK 241120Z 2412/2512 12012KT P6SM OVC007
     FM241500 24015KT P6SM SCT035
     FM250200 34007KT P6SM BKN250=



000
FTUS43 KDDC 241120
TAFGCK
TAF
KGCK 241120Z 2412/2512 12012KT P6SM OVC007
     FM241500 24015KT P6SM SCT035
     FM250200 34007KT P6SM BKN250=



000
FTUS43 KDDC 241120
TAFDDC
TAF
KDDC 241120Z 2412/2512 13008KT 3SM BR OVC008
     FM241400 17012KT P6SM SCT035
     FM241900 19015KT P6SM VCTS BKN035CB
     FM242300 23012KT P6SM BKN090
     FM250200 34007KT P6SM BKN250=



000
FTUS43 KDDC 241120
TAFDDC
TAF
KDDC 241120Z 2412/2512 13008KT 3SM BR OVC008
     FM241400 17012KT P6SM SCT035
     FM241900 19015KT P6SM VCTS BKN035CB
     FM242300 23012KT P6SM BKN090
     FM250200 34007KT P6SM BKN250=



000
FTUS43 KDDC 241120
TAFGCK
TAF
KGCK 241120Z 2412/2512 12012KT P6SM OVC007
     FM241500 24015KT P6SM SCT035
     FM250200 34007KT P6SM BKN250=



000
FTUS43 KDDC 241026 AAA
TAFHYS
TAF AMD
KHYS 241026Z 2410/2506 15017KT 4SM BR BKN060
     FM241200 13007KT 3SM BR OVC007
     FM241500 17012KT P6SM SCT015
     FM242200 19015KT P6SM VCTS SCT035CB
     FM250200 34007KT P6SM BKN250=



000
FTUS43 KDDC 241026 AAA
TAFHYS
TAF AMD
KHYS 241026Z 2410/2506 15017KT 4SM BR BKN060
     FM241200 13007KT 3SM BR OVC007
     FM241500 17012KT P6SM SCT015
     FM242200 19015KT P6SM VCTS SCT035CB
     FM250200 34007KT P6SM BKN250=



000
FTUS43 KDDC 241026 AAA
TAFHYS
TAF AMD
KHYS 241026Z 2410/2506 15017KT 4SM BR BKN060
     FM241200 13007KT 3SM BR OVC007
     FM241500 17012KT P6SM SCT015
     FM242200 19015KT P6SM VCTS SCT035CB
     FM250200 34007KT P6SM BKN250=



000
FTUS43 KDDC 241023 AAA
TAFGCK
TAF AMD
KGCK 241023Z 2410/2506 13010KT P6SM OVC012
     FM241200 17012KT 3SM BR BKN008
     FM241530 19015KT P6SM SCT035
     FM242000 19015KT P6SM VCTS SCT035CB
     FM250200 34007KT P6SM BKN250=



000
FTUS43 KDDC 241023 AAA
TAFGCK
TAF AMD
KGCK 241023Z 2410/2506 13010KT P6SM OVC012
     FM241200 17012KT 3SM BR BKN008
     FM241530 19015KT P6SM SCT035
     FM242000 19015KT P6SM VCTS SCT035CB
     FM250200 34007KT P6SM BKN250=



000
FTUS43 KDDC 241023 AAA
TAFGCK
TAF AMD
KGCK 241023Z 2410/2506 13010KT P6SM OVC012
     FM241200 17012KT 3SM BR BKN008
     FM241530 19015KT P6SM SCT035
     FM242000 19015KT P6SM VCTS SCT035CB
     FM250200 34007KT P6SM BKN250=



000
FTUS43 KDDC 241021 AAB
TAFDDC
TAF AMD
KDDC 241021Z 2410/2506 15011KT P6SM BKN008 OVC016
     FM241200 17012KT 3SM BR OVC004
     FM241400 17012KT P6SM BKN015
     FM241700 19015KT P6SM SCT035
     FM242000 19015KT P6SM VCTS SCT035CB
     FM250200 34007KT P6SM BKN250=



000
FTUS43 KDDC 241021 AAB
TAFDDC
TAF AMD
KDDC 241021Z 2410/2506 15011KT P6SM BKN008 OVC016
     FM241200 17012KT 3SM BR OVC004
     FM241400 17012KT P6SM BKN015
     FM241700 19015KT P6SM SCT035
     FM242000 19015KT P6SM VCTS SCT035CB
     FM250200 34007KT P6SM BKN250=



000
FTUS43 KDDC 240907 AAA
TAFDDC
TAF AMD
KDDC 240907Z 2409/2506 13008KT 3SM BR OVC020
     FM241000 17012KT 1 1/2SM BR OVC010
     FM241200 17012KT 3/4SM BR OVC004
     FM241500 17012KT P6SM BKN015
     FM241700 19015KT P6SM SCT035
     FM242000 19015KT P6SM VCTS SCT035CB
     FM250200 34007KT P6SM BKN250=



000
FTUS43 KDDC 240539
TAFDDC
TAF
KDDC 240539Z 2406/2506 14011KT P6SM OVC007
     FM240800 13008KT 3/4SM -DZ BR OVC003
     FM241400 17012KT P6SM BKN015
     FM241700 19015KT P6SM SCT035
     FM242000 19015KT P6SM VCTS SCT035CB
     FM250200 34007KT P6SM BKN250=



000
FTUS43 KDDC 240539
TAFHYS
TAF
KHYS 240539Z 2406/2506 15012KT P6SM BKN015
      TEMPO 2406/2409 VRB20KT -TSRA OVC015CB
     FM240900 13008KT 4SM BR OVC005
     FM241600 17012KT P6SM BKN015
     FM242000 19015KT P6SM SCT020
     FM242200 19015KT P6SM VCTS SCT035CB
     FM250200 34007KT P6SM BKN250=



000
FTUS43 KDDC 240539
TAFGCK
TAF
KGCK 240539Z 2406/2506 14011KT P6SM OVC008
     FM240800 13008KT 2SM BR OVC004
     FM241300 17012KT P6SM BKN015
     FM241530 19015KT P6SM SCT035
     FM242000 19015KT P6SM VCTS SCT035CB
     FM250200 34007KT P6SM BKN250=



000
FTUS43 KDDC 240539
TAFHYS
TAF
KHYS 240539Z 2406/2506 15012KT P6SM BKN015
      TEMPO 2406/2409 VRB20KT -TSRA OVC015CB
     FM240900 13008KT 4SM BR OVC005
     FM241600 17012KT P6SM BKN015
     FM242000 19015KT P6SM SCT020
     FM242200 19015KT P6SM VCTS SCT035CB
     FM250200 34007KT P6SM BKN250=



000
FTUS43 KDDC 240539
TAFGCK
TAF
KGCK 240539Z 2406/2506 14011KT P6SM OVC008
     FM240800 13008KT 2SM BR OVC004
     FM241300 17012KT P6SM BKN015
     FM241530 19015KT P6SM SCT035
     FM242000 19015KT P6SM VCTS SCT035CB
     FM250200 34007KT P6SM BKN250=



000
FTUS43 KDDC 240539
TAFDDC
TAF
KDDC 240539Z 2406/2506 14011KT P6SM OVC007
     FM240800 13008KT 3/4SM -DZ BR OVC003
     FM241400 17012KT P6SM BKN015
     FM241700 19015KT P6SM SCT035
     FM242000 19015KT P6SM VCTS SCT035CB
     FM250200 34007KT P6SM BKN250=



000
FTUS43 KDDC 240252 AAB
TAFGCK
TAF AMD
KGCK 240252Z 2403/2424 15012KT 5SM +TSRA OVC015CB
     FM240330 14011KT P6SM VCTS OVC015CB
     FM240430 14011KT P6SM OVC008
     FM240800 13008KT 2SM BR OVC004
     FM241300 17012KT P6SM BKN015
     FM241530 19015KT P6SM SCT035=



000
FTUS43 KDDC 240252 AAB
TAFGCK
TAF AMD
KGCK 240252Z 2403/2424 15012KT 5SM +TSRA OVC015CB
     FM240330 14011KT P6SM VCTS OVC015CB
     FM240430 14011KT P6SM OVC008
     FM240800 13008KT 2SM BR OVC004
     FM241300 17012KT P6SM BKN015
     FM241530 19015KT P6SM SCT035=



000
FTUS43 KDDC 240252 AAB
TAFGCK
TAF AMD
KGCK 240252Z 2403/2424 15012KT 5SM +TSRA OVC015CB
     FM240330 14011KT P6SM VCTS OVC015CB
     FM240430 14011KT P6SM OVC008
     FM240800 13008KT 2SM BR OVC004
     FM241300 17012KT P6SM BKN015
     FM241530 19015KT P6SM SCT035=



000
FTUS43 KDDC 240226 AAA
TAFGCK
TAF AMD
KGCK 240226Z 2402/2424 15012KT P6SM VCTS OVC015CB
     FM240400 14011KT P6SM OVC007
     FM240800 13008KT 2SM BR OVC004
     FM241300 17012KT P6SM BKN015
     FM241530 19015KT P6SM SCT035=



000
FTUS43 KDDC 240226 AAA
TAFGCK
TAF AMD
KGCK 240226Z 2402/2424 15012KT P6SM VCTS OVC015CB
     FM240400 14011KT P6SM OVC007
     FM240800 13008KT 2SM BR OVC004
     FM241300 17012KT P6SM BKN015
     FM241530 19015KT P6SM SCT035=



    US Dept of Commerce
    National Oceanic and Atmospheric Administration
    National Weather Service
    1325 East West Highway
    Silver Spring, MD 20910
    Page Author: NWS Internet Services Team
Disclaimer
Information Quality
Credits
Glossary
Privacy Policy
Freedom of Information Act (FOIA)
About Us
Career Opportunities